Time;durP1;ratioP1;P1;durP2;ratioP2;P2;SDS_P1;SDS_P2;PMS_P1;PMS_P2;Temp;Humidity;BMP_temperature;BMP_pressure;BME280_temperature;BME280_humidity;BME280_pressure;Samples;Min_cycle;Max_cycle;Signal;HPM_P1;HPM_P2
2023/03/04 00:00:56;;;;;;;20.00;3.78;;;;;;;4.68;70.41;102374.84;7392396;19;20018;-60
2023/03/04 00:03:22;;;;;;;20.08;3.97;;;;;;;4.70;70.68;102372.16;7394127;19;20071;-59
2023/03/04 00:05:47;;;;;;;17.33;3.30;;;;;;;4.64;70.61;102367.94;7393128;19;20026;-60
2023/03/04 00:08:12;;;;;;;20.92;3.42;;;;;;;4.70;70.08;102369.50;7393934;19;19998;-60
2023/03/04 00:10:38;;;;;;;15.00;4.22;;;;;;;4.72;70.29;102372.97;7392752;19;20003;-60
2023/03/04 00:13:03;;;;;;;25.67;4.75;;;;;;;4.71;70.18;102364.19;7391424;19;20409;-60
2023/03/04 00:15:29;;;;;;;16.25;3.47;;;;;;;4.73;70.35;102361.53;7390738;19;20001;-59
2023/03/04 00:17:55;;;;;;;19.85;3.30;;;;;;;4.77;70.29;102358.75;7394219;19;20065;-58
2023/03/04 00:20:20;;;;;;;17.10;3.63;;;;;;;4.68;70.41;102353.78;7390370;19;20002;-60
2023/03/04 00:22:46;;;;;;;18.90;3.65;;;;;;;4.67;70.59;102359.06;7393597;19;20007;-61
2023/03/04 00:25:11;;;;;;;22.63;3.83;;;;;;;4.72;70.28;102360.66;7393030;19;19998;-63
2023/03/04 00:27:37;;;;;;;14.18;3.20;;;;;;;4.73;70.39;102358.91;7393385;19;20446;-59
2023/03/04 00:30:04;;;;;;;17.15;3.75;;;;;;;4.72;70.52;102358.03;7390950;19;20007;-60
2023/03/04 00:32:30;;;;;;;23.35;3.20;;;;;;;4.72;70.70;102354.56;7393184;19;19998;-60
2023/03/04 00:34:55;;;;;;;19.73;3.90;;;;;;;4.70;70.77;102348.44;7391773;19;20036;-60
2023/03/04 00:37:21;;;;;;;17.15;3.50;;;;;;;4.68;70.91;102348.53;7388706;19;20006;-62
2023/03/04 00:39:46;;;;;;;17.50;3.35;;;;;;;4.73;70.73;102358.91;7391953;19;19998;-62
2023/03/04 00:42:12;;;;;;;16.80;3.53;;;;;;;4.74;70.45;102347.44;7392344;19;19998;-64
2023/03/04 00:44:37;;;;;;;17.77;3.60;;;;;;;4.72;70.72;102347.50;7389726;19;19998;-63
2023/03/04 00:47:02;;;;;;;19.90;3.53;;;;;;;4.73;70.54;102349.22;7391144;19;20082;-61
2023/03/04 00:49:28;;;;;;;16.10;3.03;;;;;;;4.71;70.74;102342.28;7390209;19;19995;-62
2023/03/04 00:51:53;;;;;;;15.07;3.55;;;;;;;4.66;71.08;102341.56;7390184;19;20046;-62
2023/03/04 00:54:19;;;;;;;16.38;3.20;;;;;;;4.73;70.99;102337.84;7389794;19;20010;-62
2023/03/04 00:56:44;;;;;;;22.30;3.30;;;;;;;4.73;70.64;102335.19;7388614;19;20070;-62
2023/03/04 00:59:09;;;;;;;17.50;3.05;;;;;;;4.76;70.71;102335.09;7391877;19;20002;-62
2023/03/04 01:01:35;;;;;;;14.82;3.15;;;;;;;4.69;70.64;102347.59;7390757;19;20010;-61
2023/03/04 01:04:00;;;;;;;17.50;3.15;;;;;;;4.67;70.76;102340.66;7390934;19;19995;-61
2023/03/04 01:06:26;;;;;;;15.13;3.38;;;;;;;4.70;70.72;102338.78;7389411;19;19998;-62
2023/03/04 01:08:51;;;;;;;19.80;2.85;;;;;;;4.69;70.72;102333.56;7391767;19;20390;-61
2023/03/04 01:11:17;;;;;;;18.52;3.47;;;;;;;4.62;70.49;102332.91;7390280;19;19994;-62
2023/03/04 01:13:42;;;;;;;15.30;3.15;;;;;;;4.73;70.34;102325.53;7390980;19;20006;-63
2023/03/04 01:16:09;;;;;;;16.88;2.75;;;;;;;4.73;70.42;102324.66;7390294;19;20447;-62
2023/03/04 01:18:36;;;;;;;19.38;2.78;;;;;;;4.70;70.56;102328.25;7391115;19;20321;-60
2023/03/04 01:21:01;;;;;;;17.23;2.97;;;;;;;4.73;70.54;102327.31;7390315;19;20007;-61
2023/03/04 01:23:27;;;;;;;15.27;2.40;;;;;;;4.70;70.52;102324.75;7391151;19;20014;-62
2023/03/04 01:25:52;;;;;;;16.05;2.42;;;;;;;4.69;70.68;102318.63;7389905;19;20015;-62
2023/03/04 01:28:18;;;;;;;15.30;2.67;;;;;;;4.70;70.56;102316.88;7391386;19;19999;-63
2023/03/04 01:30:43;;;;;;;17.88;2.83;;;;;;;4.67;70.60;102320.44;7389873;19;19998;-60
2023/03/04 01:33:09;;;;;;;17.00;2.58;;;;;;;4.68;70.56;102319.56;7390961;19;20451;-61
2023/03/04 01:35:35;;;;;;;13.48;2.67;;;;;;;4.73;70.71;102319.41;7390119;19;20455;-66
2023/03/04 01:38:00;;;;;;;13.60;2.08;;;;;;;4.75;70.99;102322.84;7390159;19;20471;-64
2023/03/04 01:40:26;;;;;;;16.50;2.85;;;;;;;4.65;71.21;102310.91;7390099;19;19999;-60
2023/03/04 01:42:51;;;;;;;13.02;2.30;;;;;;;4.66;71.68;102307.34;7390639;19;20002;-62
2023/03/04 01:45:18;;;;;;;17.00;3.08;;;;;;;4.68;71.43;102306.41;7390440;19;20384;-63
2023/03/04 01:47:48;;;;;;;16.67;2.42;;;;;;;4.72;71.35;102294.00;7391513;19;20006;-61
2023/03/04 01:50:29;;;;;;;17.23;2.17;;;;;;;4.74;71.27;102300.06;7397555;19;20002;-62
2023/03/04 01:52:55;;;;;;;12.25;2.13;;;;;;;4.75;70.88;102297.41;7396986;19;20023;-62
2023/03/04 01:55:22;;;;;;;13.27;2.67;;;;;;;4.73;70.36;102286.03;7397325;19;19999;-61
2023/03/04 01:57:49;;;;;;;12.00;1.90;;;;;;;4.73;70.07;102282.56;7393320;19;19998;-61
2023/03/04 02:00:30;;;;;;;9.93;1.92;;;;;;;4.71;69.68;102279.94;7398041;19;20003;-59
2023/03/04 02:03:03;;;;;;;10.13;1.92;;;;;;;4.70;69.56;102275.59;7398248;19;20003;-61
2023/03/04 02:05:29;;;;;;;10.18;1.80;;;;;;;4.71;69.47;102274.69;7397448;19;20020;-62
2023/03/04 02:07:57;;;;;;;13.30;1.70;;;;;;;4.75;69.00;102273.69;7397470;19;20002;-62
2023/03/04 02:10:23;;;;;;;9.77;1.60;;;;;;;4.77;68.97;102277.13;7397195;19;19998;-61
2023/03/04 02:12:49;;;;;;;14.13;1.88;;;;;;;4.76;68.85;102275.41;7397425;19;20070;-62
2023/03/04 02:15:15;;;;;;;13.13;2.00;;;;;;;4.76;68.87;102271.94;7395163;19;20003;-64
2023/03/04 02:17:40;;;;;;;8.68;1.35;;;;;;;4.79;68.60;102269.16;7392690;19;20003;-63
2023/03/04 02:20:22;;;;;;;8.05;1.88;;;;;;;4.79;68.76;102256.00;7396856;19;19994;-64
2023/03/04 02:23:22;;;;;;;15.02;2.33;;;;;;;4.72;69.33;102246.63;7397374;19;19999;-62
2023/03/04 02:26:16;;;;;;;12.50;2.38;;;;;;;4.73;69.66;102256.22;7396764;19;20122;-63
2023/03/04 02:28:42;;;;;;;19.42;3.88;;;;;;;4.72;70.13;102257.16;7396426;19;20462;-66
2023/03/04 02:31:38;;;;;;;16.13;4.50;;;;;;;4.73;70.85;102254.44;7395159;19;19999;-66
2023/03/04 02:34:13;;;;;;;17.35;4.60;;;;;;;4.74;71.81;102247.41;7395573;19;20462;-65
2023/03/04 02:36:39;;;;;;;21.48;4.38;;;;;;;4.66;72.71;102246.81;7395066;19;20006;-63
2023/03/04 02:39:12;;;;;;;17.55;4.57;;;;;;;4.66;73.10;102241.53;7394370;19;20027;-66
2023/03/04 02:41:38;;;;;;;21.40;4.75;;;;;;;4.67;73.22;102235.34;7395507;19;20003;-67
2023/03/04 02:44:16;;;;;;;19.75;4.13;;;;;;;4.70;73.92;102240.53;7397015;19;20030;-68
2023/03/04 02:46:41;;;;;;;21.02;4.82;;;;;;;4.69;73.70;102244.06;7396442;19;20598;-65
2023/03/04 02:49:07;;;;;;;17.90;4.85;;;;;;;4.63;73.94;102236.38;7396423;19;20080;-66
2023/03/04 02:51:32;;;;;;;18.90;5.38;;;;;;;4.62;73.81;102234.66;7394112;19;19999;-65
2023/03/04 02:53:58;;;;;;;21.30;5.55;;;;;;;4.63;74.11;102233.75;7394857;19;20003;-67
2023/03/04 02:56:23;;;;;;;19.77;6.15;;;;;;;4.59;74.12;102236.47;7394252;19;20006;-65
2023/03/04 02:58:49;;;;;;;24.75;5.60;;;;;;;4.59;74.09;102231.22;7396780;19;19995;-66
2023/03/04 03:01:14;;;;;;;20.35;5.72;;;;;;;4.58;73.92;102220.75;7391998;19;20024;-64
2023/03/04 03:03:39;;;;;;;26.08;6.35;;;;;;;4.61;74.04;102223.28;7394491;19;20066;-64
2023/03/04 03:06:05;;;;;;;22.38;6.38;;;;;;;4.61;73.92;102225.91;7394764;19;20416;-65
2023/03/04 03:08:31;;;;;;;27.88;5.10;;;;;;;4.60;74.15;102221.53;7396413;19;20364;-65
2023/03/04 03:10:56;;;;;;;18.15;4.00;;;;;;;4.63;74.08;102212.69;7395024;19;20040;-64
2023/03/04 03:13:22;;;;;;;22.48;4.38;;;;;;;4.66;73.85;102215.22;7393911;19;20356;-64
2023/03/04 03:15:47;;;;;;;12.80;3.90;;;;;;;4.63;73.84;102215.31;7394608;19;20019;-65
2023/03/04 03:18:13;;;;;;;17.30;3.60;;;;;;;4.58;73.43;102205.81;7394057;19;20015;-66
2023/03/04 03:20:38;;;;;;;15.05;3.28;;;;;;;4.56;73.32;102199.75;7392981;19;20027;-64
2023/03/04 03:23:04;;;;;;;14.52;3.90;;;;;;;4.64;73.35;102201.25;7395678;19;20003;-66
2023/03/04 03:25:30;;;;;;;18.60;4.45;;;;;;;4.61;73.43;102202.22;7394865;19;20002;-64
2023/03/04 03:27:55;;;;;;;17.95;4.20;;;;;;;4.62;73.32;102210.97;7395788;19;19995;-61
2023/03/04 03:30:21;;;;;;;21.13;4.70;;;;;;;4.59;73.32;102199.63;7394214;19;20006;-61
2023/03/04 03:32:47;;;;;;;20.83;6.28;;;;;;;4.64;73.14;102191.59;7394774;19;20468;-62
2023/03/04 03:35:12;;;;;;;16.98;5.72;;;;;;;4.67;72.97;102190.59;7393704;19;20018;-62
2023/03/04 03:37:38;;;;;;;21.27;5.28;;;;;;;4.69;72.88;102192.28;7392181;19;19995;-61
2023/03/04 03:40:04;;;;;;;19.98;4.53;;;;;;;4.71;72.92;102192.22;7393745;19;20487;-61
2023/03/04 03:42:29;;;;;;;19.48;4.35;;;;;;;4.63;72.63;102183.72;7394749;19;20002;-61
2023/03/04 03:44:55;;;;;;;15.60;4.18;;;;;;;4.63;72.84;102189.84;7393658;19;20083;-62
2023/03/04 03:47:21;;;;;;;15.25;3.80;;;;;;;4.61;72.96;102188.22;7395167;19;20005;-61
2023/03/04 03:49:46;;;;;;;15.35;4.78;;;;;;;4.64;73.07;102191.59;7393656;19;20348;-60
2023/03/04 03:52:18;;;;;;;18.25;4.13;;;;;;;4.69;73.10;102191.44;7394122;19;20009;-63
2023/03/04 03:54:49;;;;;;;17.95;4.22;;;;;;;4.61;73.63;102196.09;7391207;19;20040;-62
2023/03/04 03:57:15;;;;;;;17.48;4.15;;;;;;;4.62;73.90;102187.28;7392985;19;20013;-61
2023/03/04 03:59:40;;;;;;;16.63;4.20;;;;;;;4.59;74.07;102186.47;7392286;19;19998;-62
2023/03/04 04:02:06;;;;;;;20.25;4.55;;;;;;;4.56;74.34;102183.97;7393945;19;20016;-62
2023/03/04 04:04:32;;;;;;;18.45;4.82;;;;;;;4.53;74.70;102180.56;7393848;19;20021;-61
2023/03/04 04:06:57;;;;;;;15.48;3.40;;;;;;;4.49;74.81;102181.59;7393802;19;20050;-61
2023/03/04 04:09:23;;;;;;;14.90;3.88;;;;;;;4.43;75.02;102176.53;7394103;19;20003;-62
2023/03/04 04:11:48;;;;;;;22.95;4.57;;;;;;;4.47;75.07;102183.41;7389845;19;20052;-63
2023/03/04 04:14:14;;;;;;;15.25;3.50;;;;;;;4.47;75.12;102181.63;7393943;19;20669;-63
2023/03/04 04:16:40;;;;;;;18.95;4.43;;;;;;;4.42;75.37;102177.44;7392006;19;20017;-61
2023/03/04 04:19:06;;;;;;;15.45;4.03;;;;;;;4.49;75.51;102169.28;7393792;19;20005;-62
2023/03/04 04:21:31;;;;;;;15.32;3.75;;;;;;;4.48;75.46;102171.94;7392571;19;20003;-63
2023/03/04 04:23:57;;;;;;;16.63;4.10;;;;;;;4.47;75.71;102162.34;7393457;19;20004;-63
2023/03/04 04:26:22;;;;;;;19.85;5.05;;;;;;;4.43;75.86;102164.22;7393206;19;20010;-61
2023/03/04 04:28:47;;;;;;;17.80;5.45;;;;;;;4.39;76.70;102164.38;7393388;19;20316;-63
2023/03/04 04:31:13;;;;;;;21.02;6.50;;;;;;;4.33;76.96;102161.06;7391210;19;20006;-64
2023/03/04 04:33:38;;;;;;;20.75;5.75;;;;;;;4.35;77.17;102164.47;7393211;19;20018;-64
2023/03/04 04:36:05;;;;;;;16.20;4.30;;;;;;;4.26;77.95;102159.53;7391675;19;20026;-63
2023/03/04 04:38:30;;;;;;;14.35;3.78;;;;;;;4.31;78.27;102164.63;7389865;19;20014;-59
2023/03/04 04:40:59;;;;;;;20.20;4.18;;;;;;;4.34;77.66;102154.00;7392809;19;20001;-58
2023/03/04 04:43:25;;;;;;;19.23;4.55;;;;;;;4.31;78.40;102156.75;7393959;19;19995;-58
2023/03/04 04:45:50;;;;;;;19.33;4.88;;;;;;;4.28;78.91;102156.84;7392626;19;19987;-58
2023/03/04 04:48:16;;;;;;;21.23;6.25;;;;;;;4.29;79.05;102158.53;7390738;19;20005;-58
2023/03/04 04:50:41;;;;;;;22.63;6.68;;;;;;;4.29;78.53;102163.81;7392446;19;20002;-59
2023/03/04 04:53:07;;;;;;;18.25;6.30;;;;;;;4.24;79.28;102156.06;7392670;19;20455;-58
2023/03/04 04:55:33;;;;;;;21.90;6.35;;;;;;;4.24;79.14;102163.97;7391471;19;19990;-58
2023/03/04 04:57:59;;;;;;;18.40;5.72;;;;;;;4.21;79.43;102166.69;7390217;19;19998;-58
2023/03/04 05:00:25;;;;;;;17.42;5.13;;;;;;;4.23;79.47;102167.50;7390468;19;19999;-59
2023/03/04 05:02:50;;;;;;;17.33;5.18;;;;;;;4.26;79.61;102162.16;7390137;19;20006;-59
2023/03/04 05:05:16;;;;;;;23.70;5.18;;;;;;;4.27;79.48;102155.97;7389892;19;19998;-59
2023/03/04 05:07:41;;;;;;;20.67;4.88;;;;;;;4.24;79.74;102171.00;7390612;19;20368;-59
2023/03/04 05:10:08;;;;;;;17.63;3.78;;;;;;;4.27;79.25;102157.75;7392205;19;20030;-59
2023/03/04 05:12:34;;;;;;;15.73;3.72;;;;;;;4.20;79.92;102149.19;7389957;19;19994;-59
2023/03/04 05:14:59;;;;;;;19.63;5.60;;;;;;;4.22;79.65;102155.28;7390155;19;20447;-60
2023/03/04 05:17:24;;;;;;;17.50;5.22;;;;;;;4.25;79.81;102152.53;7390523;19;20062;-59
2023/03/04 05:19:50;;;;;;;18.20;4.93;;;;;;;4.23;80.37;102170.16;7391541;19;20005;-59
2023/03/04 05:22:15;;;;;;;17.42;5.05;;;;;;;4.16;80.87;102152.84;7391807;19;20002;-59
2023/03/04 05:24:41;;;;;;;22.70;6.68;;;;;;;4.19;80.85;102159.78;7389605;19;20681;-58
2023/03/04 05:27:06;;;;;;;26.10;9.27;;;;;;;4.19;81.47;102159.78;7391000;19;19995;-59
2023/03/04 05:29:31;;;;;;;30.73;10.10;;;;;;;4.15;81.87;102168.69;7391621;19;19999;-58
2023/03/04 05:31:57;;;;;;;24.92;8.80;;;;;;;4.19;81.93;102173.78;7391162;19;20015;-59
2023/03/04 05:34:23;;;;;;;23.83;8.05;;;;;;;4.20;82.00;102172.00;7390672;19;20015;-59
2023/03/04 05:36:48;;;;;;;21.90;7.60;;;;;;;4.16;82.29;102159.88;7389059;19;20022;-59
2023/03/04 05:39:13;;;;;;;21.80;7.95;;;;;;;4.18;81.77;102161.56;7391586;19;20014;-59
2023/03/04 05:41:39;;;;;;;17.23;6.55;;;;;;;4.15;82.14;102158.16;7391303;19;20455;-58
2023/03/04 05:44:04;;;;;;;12.48;4.82;;;;;;;4.15;81.72;102166.91;7391448;19;20010;-59
2023/03/04 05:46:30;;;;;;;21.67;5.55;;;;;;;4.19;81.62;102160.63;7390697;19;19999;-59
2023/03/04 05:48:55;;;;;;;13.68;4.50;;;;;;;4.19;82.17;102157.16;7391645;19;19997;-59
2023/03/04 05:51:21;;;;;;;15.13;4.25;;;;;;;4.20;81.63;102166.75;7389242;19;19998;-59
2023/03/04 05:53:47;;;;;;;14.15;3.38;;;;;;;4.16;81.99;102162.50;7389503;19;19995;-59
2023/03/04 05:56:15;;;;;;;11.20;3.47;;;;;;;4.21;82.44;102157.94;7389657;19;20003;-58
2023/03/04 05:58:41;;;;;;;13.63;3.58;;;;;;;4.18;82.41;102164.19;7390902;19;20003;-58
2023/03/04 06:01:07;;;;;;;13.48;3.13;;;;;;;4.19;82.37;102159.78;7389231;19;20379;-59
2023/03/04 06:03:34;;;;;;;12.88;3.40;;;;;;;4.25;82.59;102155.16;7391026;19;20018;-60
2023/03/04 06:05:59;;;;;;;14.13;2.90;;;;;;;4.23;82.33;102150.88;7390564;19;20002;-60
2023/03/04 06:08:26;;;;;;;13.88;3.83;;;;;;;4.25;82.42;102149.03;7388764;19;20483;-61
2023/03/04 06:10:54;;;;;;;15.02;4.30;;;;;;;4.28;82.03;102155.06;7390583;19;20062;-62
2023/03/04 06:13:21;;;;;;;13.63;4.13;;;;;;;4.26;82.54;102154.28;7388298;19;20059;-61
2023/03/04 06:15:47;;;;;;;14.75;4.38;;;;;;;4.30;82.55;102157.66;7386902;19;19998;-61
2023/03/04 06:18:12;;;;;;;15.23;4.32;;;;;;;4.28;82.49;102157.69;7388804;19;20014;-61
2023/03/04 06:20:41;;;;;;;15.70;3.88;;;;;;;4.34;82.57;102148.75;7388810;19;20466;-60
2023/03/04 06:23:07;;;;;;;14.05;4.40;;;;;;;4.39;82.80;102149.44;7388995;19;20477;-60
2023/03/04 06:25:32;;;;;;;15.05;4.63;;;;;;;4.36;82.72;102146.91;7389305;19;20062;-60
2023/03/04 06:27:58;;;;;;;13.95;3.95;;;;;;;4.29;83.08;102151.50;7388965;19;19999;-61
2023/03/04 06:30:23;;;;;;;16.50;3.83;;;;;;;4.34;82.89;102146.13;7390749;19;19999;-61
2023/03/04 06:32:48;;;;;;;12.75;4.10;;;;;;;4.32;83.67;102148.78;7389639;19;19991;-61
2023/03/04 06:35:15;;;;;;;13.07;3.88;;;;;;;4.34;83.49;102159.28;7389248;19;19999;-61
2023/03/04 06:37:41;;;;;;;11.30;2.78;;;;;;;4.28;83.92;102162.09;7394562;19;20090;-63
2023/03/04 06:40:08;;;;;;;9.45;2.80;;;;;;;4.34;83.73;102164.53;7396677;19;20475;-63
2023/03/04 06:42:34;;;;;;;6.47;2.38;;;;;;;4.33;83.99;102168.06;7396587;19;19995;-63
2023/03/04 06:45:00;;;;;;;10.10;3.08;;;;;;;4.32;83.88;102175.09;7394402;19;20034;-63
2023/03/04 06:47:26;;;;;;;9.77;2.20;;;;;;;4.39;83.78;102173.13;7396515;19;20070;-63
2023/03/04 06:49:52;;;;;;;5.97;1.60;;;;;;;4.43;83.10;102176.53;7397237;19;20005;-63
2023/03/04 06:52:17;;;;;;;5.30;1.80;;;;;;;4.48;83.33;102183.34;7396854;19;20003;-63
2023/03/04 06:54:43;;;;;;;9.07;2.17;;;;;;;4.44;83.07;102162.44;7396186;19;20004;-63
2023/03/04 06:57:08;;;;;;;5.50;1.40;;;;;;;4.42;83.20;102180.94;7394207;19;20460;-63
2023/03/04 06:59:34;;;;;;;5.55;1.45;;;;;;;4.40;82.67;102174.84;7397220;19;20062;-62
2023/03/04 07:01:59;;;;;;;6.32;1.65;;;;;;;4.43;82.45;102177.38;7396476;19;20012;-63
2023/03/04 07:04:25;;;;;;;7.40;1.70;;;;;;;4.44;82.24;102173.81;7395479;19;20010;-63
2023/03/04 07:06:50;;;;;;;11.82;2.15;;;;;;;4.53;81.71;102170.91;7395025;19;19999;-63
2023/03/04 07:09:16;;;;;;;9.65;1.98;;;;;;;4.50;81.66;102173.63;7396306;19;20017;-63
2023/03/04 07:11:42;;;;;;;11.43;2.13;;;;;;;4.58;81.24;102173.38;7396770;19;20027;-64
2023/03/04 07:14:07;;;;;;;14.18;2.45;;;;;;;4.64;80.78;102177.53;7396162;19;20395;-60
2023/03/04 07:16:33;;;;;;;13.00;2.88;;;;;;;4.65;81.11;102174.03;7394156;19;20010;-60
2023/03/04 07:18:58;;;;;;;14.38;2.47;;;;;;;4.60;81.11;102171.53;7394544;19;20451;-60
2023/03/04 07:21:24;;;;;;;15.85;2.30;;;;;;;4.64;80.61;102174.91;7393835;19;20005;-61
2023/03/04 07:23:50;;;;;;;13.23;2.40;;;;;;;4.65;80.29;102176.66;7394245;19;20020;-61
2023/03/04 07:26:16;;;;;;;11.48;2.45;;;;;;;4.61;80.34;102175.91;7395076;19;20006;-61
2023/03/04 07:28:42;;;;;;;20.05;2.63;;;;;;;4.62;80.51;102185.50;7395324;19;20002;-61
2023/03/04 07:31:18;;;;;;;13.75;3.05;;;;;;;4.53;80.80;102173.53;7393401;19;20455;-61
2023/03/04 07:33:43;;;;;;;14.45;2.63;;;;;;;4.58;80.42;102176.00;7393273;19;20095;-59
2023/03/04 07:36:10;;;;;;;17.20;3.15;;;;;;;4.64;80.77;102182.81;7393552;19;20514;-59
2023/03/04 07:38:35;;;;;;;15.65;3.05;;;;;;;4.61;80.74;102175.91;7391112;19;20003;-61
2023/03/04 07:41:01;;;;;;;17.88;3.22;;;;;;;4.60;80.63;102184.69;7394998;19;19995;-61
2023/03/04 07:43:27;;;;;;;19.10;2.88;;;;;;;4.58;80.76;102183.91;7395903;19;20058;-60
2023/03/04 07:45:59;;;;;;;21.10;3.08;;;;;;;4.61;80.67;102191.69;7391456;19;19999;-60
2023/03/04 07:48:25;;;;;;;21.08;3.25;;;;;;;4.58;80.08;102192.66;7391085;19;19995;-57
2023/03/04 07:51:02;;;;;;;21.77;3.33;;;;;;;4.61;79.89;102196.09;7394471;19;20723;-56
2023/03/04 07:53:27;;;;;;;19.60;3.28;;;;;;;4.58;79.57;102182.13;7392537;19;20074;-57
2023/03/04 07:55:52;;;;;;;16.98;3.25;;;;;;;4.64;79.02;102194.22;7393441;19;20471;-56
2023/03/04 07:58:18;;;;;;;19.75;4.15;;;;;;;4.68;78.25;102189.69;7392913;19;20033;-57
2023/03/04 08:00:44;;;;;;;20.33;3.72;;;;;;;4.68;77.31;102181.78;7393717;19;20005;-57
2023/03/04 08:03:09;;;;;;;23.98;4.38;;;;;;;4.78;76.68;102188.47;7394238;19;19999;-57
2023/03/04 08:05:38;;;;;;;21.80;3.60;;;;;;;4.76;76.45;102185.91;7393396;19;20027;-57
2023/03/04 08:08:03;;;;;;;25.60;4.70;;;;;;;4.79;76.06;102190.19;7393580;19;19999;-57
2023/03/04 08:10:29;;;;;;;27.25;4.05;;;;;;;4.80;76.01;102184.88;7393213;19;20424;-57
2023/03/04 08:12:54;;;;;;;25.90;4.40;;;;;;;4.78;75.21;102194.59;7394515;19;19991;-58
2023/03/04 08:15:20;;;;;;;24.13;3.90;;;;;;;4.83;75.17;102182.16;7392892;19;20001;-58
2023/03/04 08:17:45;;;;;;;26.05;4.40;;;;;;;4.86;74.92;102186.44;7389933;19;20001;-58
2023/03/04 08:20:11;;;;;;;29.63;5.13;;;;;;;4.88;75.14;102183.75;7393308;19;19995;-58
2023/03/04 08:22:36;;;;;;;24.17;4.93;;;;;;;4.92;74.33;102190.63;7393774;19;19994;-60
2023/03/04 08:25:02;;;;;;;25.38;5.05;;;;;;;4.93;74.56;102179.19;7392833;19;20026;-59
2023/03/04 08:27:28;;;;;;;25.02;4.93;;;;;;;4.95;74.80;102190.53;7392676;19;20016;-60
2023/03/04 08:29:53;;;;;;;25.30;4.40;;;;;;;4.92;74.93;102188.84;7393844;19;19997;-59
2023/03/04 08:32:19;;;;;;;26.95;4.72;;;;;;;4.89;73.54;102194.22;7393270;19;19990;-58
2023/03/04 08:34:44;;;;;;;27.35;4.38;;;;;;;4.95;73.37;102191.38;7391775;19;20343;-57
2023/03/04 08:37:10;;;;;;;21.00;4.18;;;;;;;5.05;72.41;102192.75;7392193;19;19994;-57
2023/03/04 08:39:36;;;;;;;22.17;3.88;;;;;;;5.13;72.67;102204.78;7392028;19;19991;-56
2023/03/04 08:42:02;;;;;;;19.58;3.17;;;;;;;5.09;71.34;102204.03;7392941;19;19999;-56
2023/03/04 08:44:28;;;;;;;14.65;2.97;;;;;;;5.11;70.82;102204.88;7392803;19;19995;-59
2023/03/04 08:46:53;;;;;;;16.05;2.90;;;;;;;5.11;70.45;102214.53;7389751;19;20047;-58
2023/03/04 08:49:19;;;;;;;14.98;2.40;;;;;;;5.19;69.10;102210.72;7392863;19;19998;-58
2023/03/04 08:51:45;;;;;;;15.82;2.45;;;;;;;5.12;69.07;102208.34;7387663;19;20523;-57
2023/03/04 08:54:10;;;;;;;14.30;2.50;;;;;;;5.23;68.88;102200.94;7392013;19;20014;-58
2023/03/04 08:56:36;;;;;;;11.05;2.00;;;;;;;5.24;68.78;102202.63;7389208;19;20076;-57
2023/03/04 08:59:02;;;;;;;13.93;2.50;;;;;;;5.22;68.84;102207.13;7388470;19;20478;-57
2023/03/04 09:01:28;;;;;;;12.82;3.03;;;;;;;5.17;68.76;102215.16;7390827;19;20003;-57
2023/03/04 09:03:54;;;;;;;12.68;2.30;;;;;;;5.12;69.20;102214.47;7390426;19;19997;-58
2023/03/04 09:06:19;;;;;;;18.25;2.90;;;;;;;5.00;70.06;102207.03;7392197;19;19998;-58
2023/03/04 09:08:45;;;;;;;18.85;2.92;;;;;;;4.89;71.67;102227.59;7390074;19;20424;-58
2023/03/04 09:11:11;;;;;;;13.95;3.08;;;;;;;4.80;72.43;102223.53;7392076;19;20005;-57
2023/03/04 09:13:37;;;;;;;17.52;3.38;;;;;;;4.71;72.67;102211.50;7390052;19;20006;-58
2023/03/04 09:16:08;;;;;;;20.30;3.65;;;;;;;4.82;72.40;102224.31;7391114;19;20003;-58
2023/03/04 09:18:45;;;;;;;17.30;3.40;;;;;;;4.83;71.80;102212.88;7388510;19;20030;-57
2023/03/04 09:21:11;;;;;;;18.65;3.45;;;;;;;4.81;72.31;102206.81;7389570;19;19998;-57
2023/03/04 09:23:38;;;;;;;18.63;3.08;;;;;;;4.96;71.42;102211.53;7391609;19;20002;-57
2023/03/04 09:26:22;;;;;;;17.65;3.17;;;;;;;5.48;68.96;102214.94;7390466;19;19995;-57
2023/03/04 09:28:53;;;;;;;14.90;3.28;;;;;;;5.50;68.99;102221.00;7391943;19;20010;-57
2023/03/04 09:31:19;;;;;;;15.05;3.72;;;;;;;5.46;68.91;102215.88;7391542;19;20003;-58
2023/03/04 09:33:45;;;;;;;19.45;3.45;;;;;;;5.35;68.24;102221.56;7392321;19;20003;-58
2023/03/04 09:36:12;;;;;;;16.60;4.53;;;;;;;5.40;67.71;102222.22;7388127;19;20036;-57
2023/03/04 09:38:51;;;;;;;19.48;3.40;;;;;;;5.12;66.92;102230.28;7387211;19;19994;-57
2023/03/04 09:41:28;;;;;;;22.42;4.28;;;;;;;5.27;67.43;102224.47;7388953;19;20014;-57
2023/03/04 09:43:57;;;;;;;18.85;4.10;;;;;;;5.26;67.32;102237.72;7389999;19;20031;-58
2023/03/04 09:46:33;;;;;;;18.23;3.42;;;;;;;5.14;67.13;102233.75;7390659;19;20072;-58
2023/03/04 09:49:05;;;;;;;21.33;3.38;;;;;;;5.18;67.45;102232.72;7390210;19;20319;-58
2023/03/04 09:51:46;;;;;;;18.50;3.15;;;;;;;5.21;66.75;102234.34;7389396;19;20450;-58
2023/03/04 09:54:30;;;;;;;17.30;3.45;;;;;;;5.24;66.29;102236.88;7389695;19;20002;-58
2023/03/04 09:57:16;;;;;;;15.73;3.60;;;;;;;5.31;66.49;102244.50;7388756;19;20027;-59
2023/03/04 10:00:07;;;;;;;24.67;4.13;;;;;;;5.33;66.71;102236.56;7390293;19;20026;-58
2023/03/04 10:03:09;;;;;;;18.90;3.63;;;;;;;5.35;65.63;102236.50;7390011;19;20015;-58
2023/03/04 10:05:48;;;;;;;21.58;3.45;;;;;;;5.47;65.00;102231.63;7387452;19;20365;-58
2023/03/04 10:08:25;;;;;;;21.55;2.75;;;;;;;5.40;65.59;102235.41;7386554;19;20023;-58
2023/03/04 10:10:53;;;;;;;16.08;2.97;;;;;;;5.22;66.82;102233.47;7397460;19;20009;-58
2023/03/04 10:13:30;;;;;;;17.48;3.38;;;;;;;5.09;67.69;102239.16;7397715;19;19998;-58
2023/03/04 10:15:58;;;;;;;15.50;3.15;;;;;;;5.06;67.83;102238.41;7396016;19;20455;-58
2023/03/04 10:18:32;;;;;;;17.38;3.50;;;;;;;5.08;67.80;102239.22;7392971;19;20458;-58
2023/03/04 10:21:03;;;;;;;16.27;3.40;;;;;;;5.32;67.37;102238.31;7397623;19;20004;-58
2023/03/04 10:23:31;;;;;;;16.85;3.78;;;;;;;5.51;67.04;102230.59;7395328;19;19999;-58
2023/03/04 10:26:00;;;;;;;20.42;4.25;;;;;;;5.53;67.17;102238.47;7396533;19;19998;-58
2023/03/04 10:28:30;;;;;;;18.52;3.72;;;;;;;5.57;67.88;102246.19;7393862;19;20003;-58
2023/03/04 10:31:11;;;;;;;14.70;3.83;;;;;;;5.41;68.50;102249.47;7395495;19;20007;-58
2023/03/04 10:33:38;;;;;;;21.58;3.13;;;;;;;4.88;70.74;102236.41;7397671;19;19995;-58
2023/03/04 10:36:22;;;;;;;15.55;3.30;;;;;;;4.74;71.70;102244.78;7395710;19;20023;-58
2023/03/04 10:38:47;;;;;;;16.52;3.00;;;;;;;4.73;72.47;102248.31;7394189;19;20014;-58
2023/03/04 10:41:20;;;;;;;15.75;4.00;;;;;;;4.64;72.83;102240.72;7395944;19;20379;-58
2023/03/04 10:44:08;;;;;;;17.63;3.67;;;;;;;4.63;71.59;102239.00;7397050;19;20031;-58
2023/03/04 10:46:41;;;;;;;14.23;3.55;;;;;;;4.78;71.61;102223.56;7394696;19;20032;-58
2023/03/04 10:49:09;;;;;;;18.63;4.43;;;;;;;4.91;70.83;102225.78;7394433;19;20034;-58
2023/03/04 10:51:53;;;;;;;21.55;4.30;;;;;;;4.90;72.04;102219.63;7395815;19;20006;-58
2023/03/04 10:54:30;;;;;;;21.83;3.75;;;;;;;4.88;70.59;102218.84;7396853;19;19998;-58
2023/03/04 10:56:57;;;;;;;17.42;3.08;;;;;;;5.05;69.17;102218.25;7393665;19;20002;-58
2023/03/04 10:59:32;;;;;;;14.93;2.63;;;;;;;5.34;68.12;102222.47;7393976;19;20458;-58
2023/03/04 11:02:13;;;;;;;19.60;3.72;;;;;;;5.44;68.23;102215.06;7396537;19;20070;-58
2023/03/04 11:04:39;;;;;;;20.08;3.50;;;;;;;5.74;67.51;102216.56;7396246;19;20006;-58
2023/03/04 11:07:09;;;;;;;16.90;3.08;;;;;;;5.53;68.45;102226.16;7395206;19;20010;-57
2023/03/04 11:09:35;;;;;;;20.02;4.13;;;;;;;5.62;68.43;102218.81;7395422;19;19998;-58
2023/03/04 11:12:03;;;;;;;20.35;3.70;;;;;;;5.54;67.65;102211.19;7393008;19;20475;-58
2023/03/04 11:14:54;;;;;;;19.05;4.25;;;;;;;5.55;66.46;102224.34;7395494;19;20003;-58
2023/03/04 11:17:49;;;;;;;17.70;3.53;;;;;;;5.47;65.47;102210.56;7391076;19;20062;-58
2023/03/04 11:20:33;;;;;;;19.77;3.85;;;;;;;5.47;64.51;102210.56;7393591;19;20096;-58
2023/03/04 11:23:02;;;;;;;;;;;;;;;5.62;62.00;102205.63;7394982;19;19998;-58
2023/03/04 11:25:32;;;;;;;22.80;3.55;;;;;;;5.78;63.13;102204.13;7394789;19;19922;-58
2023/03/04 11:28:04;;;;;;;22.23;3.55;;;;;;;5.84;61.96;102208.31;7394351;19;20003;-58
2023/03/04 11:30:41;;;;;;;18.70;3.70;;;;;;;5.89;61.37;102199.28;7395916;19;20062;-58